sensor_id;sensor_type;location;lat;lon;timestamp;pressure;altitude;pressure_sealevel;temperature
12126;BMP180;6126;57.908;16.490;2022-09-09T00:04:37;101778.53;;;14.10
12126;BMP180;6126;57.908;16.490;2022-09-09T00:07:49;101768.84;;;14.10
12126;BMP180;6126;57.908;16.490;2022-09-09T00:10:38;101777.53;;;14.12
12126;BMP180;6126;57.908;16.490;2022-09-09T00:13:41;101767.88;;;14.13
12126;BMP180;6126;57.908;16.490;2022-09-09T00:16:21;101762.63;;;14.13
12126;BMP180;6126;57.908;16.490;2022-09-09T00:21:37;101751.13;;;14.15
12126;BMP180;6126;57.908;16.490;2022-09-09T00:24:32;101737.94;;;14.17
12126;BMP180;6126;57.908;16.490;2022-09-09T00:30:19;101742.34;;;14.16
12126;BMP180;6126;57.908;16.490;2022-09-09T00:32:48;101740.59;;;14.15
12126;BMP180;6126;57.908;16.490;2022-09-09T00:35:29;101739.75;;;14.15
12126;BMP180;6126;57.908;16.490;2022-09-09T00:38:03;101733.69;;;14.13
12126;BMP180;6126;57.908;16.490;2022-09-09T00:40:39;101733.69;;;14.13
12126;BMP180;6126;57.908;16.490;2022-09-09T00:43:36;101734.59;;;14.13
12126;BMP180;6126;57.908;16.490;2022-09-09T00:46:45;101734.59;;;14.13
12126;BMP180;6126;57.908;16.490;2022-09-09T00:58:09;101733.59;;;14.16
12126;BMP180;6126;57.908;16.490;2022-09-09T01:06:13;101719.56;;;14.15
12126;BMP180;6126;57.908;16.490;2022-09-09T01:17:22;101716.09;;;14.15
12126;BMP180;6126;57.908;16.490;2022-09-09T01:28:21;101712.56;;;14.16
12126;BMP180;6126;57.908;16.490;2022-09-09T01:30:48;101716.94;;;14.15
12126;BMP180;6126;57.908;16.490;2022-09-09T01:33:18;101709.16;;;14.14
12126;BMP180;6126;57.908;16.490;2022-09-09T01:36:00;101722.28;;;14.14
12126;BMP180;6126;57.908;16.490;2022-09-09T01:38:30;101706.53;;;14.14
12126;BMP180;6126;57.908;16.490;2022-09-09T01:40:57;101711.78;;;14.14
12126;BMP180;6126;57.908;16.490;2022-09-09T01:43:25;101712.66;;;14.13
12126;BMP180;6126;57.908;16.490;2022-09-09T01:45:55;101721.50;;;14.12
12126;BMP180;6126;57.908;16.490;2022-09-09T01:48:24;101712.75;;;14.11
12126;BMP180;6126;57.908;16.490;2022-09-09T01:50:50;101701.53;;;14.08
12126;BMP180;6126;57.908;16.490;2022-09-09T01:53:18;101713.88;;;14.06
12126;BMP180;6126;57.908;16.490;2022-09-09T01:58:52;101711.28;;;14.04
12126;BMP180;6126;57.908;16.490;2022-09-09T02:04:39;101708.66;;;14.04
12126;BMP180;6126;57.908;16.490;2022-09-09T02:09:47;101692.00;;;14.05
12126;BMP180;6126;57.908;16.490;2022-09-09T02:12:20;101701.56;;;14.06
12126;BMP180;6126;57.908;16.490;2022-09-09T02:14:56;101698.09;;;14.06
12126;BMP180;6126;57.908;16.490;2022-09-09T02:17:34;101692.88;;;14.04
12126;BMP180;6126;57.908;16.490;2022-09-09T02:20:20;101696.38;;;14.05
12126;BMP180;6126;57.908;16.490;2022-09-09T02:22:50;101691.09;;;14.05
12126;BMP180;6126;57.908;16.490;2022-09-09T02:25:22;101694.66;;;14.04
12126;BMP180;6126;57.908;16.490;2022-09-09T02:27:50;101684.16;;;14.04
12126;BMP180;6126;57.908;16.490;2022-09-09T02:30:20;101687.72;;;14.03
12126;BMP180;6126;57.908;16.490;2022-09-09T02:32:48;101682.47;;;14.03
12126;BMP180;6126;57.908;16.490;2022-09-09T02:35:22;101678.94;;;14.02
12126;BMP180;6126;57.908;16.490;2022-09-09T02:37:53;101677.31;;;14.00
12126;BMP180;6126;57.908;16.490;2022-09-09T02:40:20;101679.94;;;14.00
12126;BMP180;6126;57.908;16.490;2022-09-09T02:42:49;101678.22;;;13.99
12126;BMP180;6126;57.908;16.490;2022-09-09T02:45:20;101672.19;;;13.97
12126;BMP180;6126;57.908;16.490;2022-09-09T02:48:31;101667.88;;;13.94
12126;BMP180;6126;57.908;16.490;2022-09-09T02:51:19;101677.66;;;13.91
12126;BMP180;6126;57.908;16.490;2022-09-09T02:54:08;101678.72;;;13.87
12126;BMP180;6126;57.908;16.490;2022-09-09T02:56:42;101688.44;;;13.85
12126;BMP180;6126;57.908;16.490;2022-09-09T02:59:09;101688.44;;;13.85
12126;BMP180;6126;57.908;16.490;2022-09-09T03:01:36;101690.13;;;13.86
12126;BMP180;6126;57.908;16.490;2022-09-09T03:04:04;101691.00;;;13.86
12126;BMP180;6126;57.908;16.490;2022-09-09T03:06:31;101685.69;;;13.88
12126;BMP180;6126;57.908;16.490;2022-09-09T03:08:56;101686.63;;;13.87
12126;BMP180;6126;57.908;16.490;2022-09-09T03:11:24;101686.63;;;13.87
12126;BMP180;6126;57.908;16.490;2022-09-09T03:13:50;101690.00;;;13.89
12126;BMP180;6126;57.908;16.490;2022-09-09T03:16:16;101685.63;;;13.89
12126;BMP180;6126;57.908;16.490;2022-09-09T03:18:43;101685.63;;;13.89
12126;BMP180;6126;57.908;16.490;2022-09-09T03:21:11;101691.75;;;13.90
12126;BMP180;6126;57.908;16.490;2022-09-09T03:23:37;101694.38;;;13.90
12126;BMP180;6126;57.908;16.490;2022-09-09T03:26:03;101681.22;;;13.90
12126;BMP180;6126;57.908;16.490;2022-09-09T03:28:29;101691.75;;;13.90
12126;BMP180;6126;57.908;16.490;2022-09-09T03:31:05;101691.75;;;13.90
12126;BMP180;6126;57.908;16.490;2022-09-09T03:33:31;101689.88;;;13.92
12126;BMP180;6126;57.908;16.490;2022-09-09T03:35:57;101679.38;;;13.92
12126;BMP180;6126;57.908;16.490;2022-09-09T03:38:24;101679.38;;;13.92
12126;BMP180;6126;57.908;16.490;2022-09-09T03:40:55;101675.84;;;13.93
12126;BMP180;6126;57.908;16.490;2022-09-09T03:43:26;101683.63;;;13.94
12126;BMP180;6126;57.908;16.490;2022-09-09T03:45:53;101685.31;;;13.97
12126;BMP180;6126;57.908;16.490;2022-09-09T03:48:23;101677.44;;;13.97
12126;BMP180;6126;57.908;16.490;2022-09-09T03:50:53;101676.56;;;13.96
12126;BMP180;6126;57.908;16.490;2022-09-09T03:53:23;101670.44;;;13.96
12126;BMP180;6126;57.908;16.490;2022-09-09T03:55:53;101679.25;;;13.95
12126;BMP180;6126;57.908;16.490;2022-09-09T03:58:22;101672.22;;;13.95
12126;BMP180;6126;57.908;16.490;2022-09-09T04:01:06;101674.84;;;13.95
12126;BMP180;6126;57.908;16.490;2022-09-09T04:03:34;101665.19;;;13.96
12126;BMP180;6126;57.908;16.490;2022-09-09T04:06:03;101662.56;;;13.96
12126;BMP180;6126;57.908;16.490;2022-09-09T04:08:30;101663.50;;;13.95
12126;BMP180;6126;57.908;16.490;2022-09-09T04:11:00;101667.03;;;13.94
12126;BMP180;6126;57.908;16.490;2022-09-09T04:13:31;101658.34;;;13.92
12126;BMP180;6126;57.908;16.490;2022-09-09T04:15:59;101661.91;;;13.91
12126;BMP180;6126;57.908;16.490;2022-09-09T04:18:26;101663.72;;;13.89
12126;BMP180;6126;57.908;16.490;2022-09-09T04:20:54;101656.78;;;13.88
12126;BMP180;6126;57.908;16.490;2022-09-09T04:23:24;101654.19;;;13.86
12126;BMP180;6126;57.908;16.490;2022-09-09T04:25:53;101655.97;;;13.86
12126;BMP180;6126;57.908;16.490;2022-09-09T04:28:23;101657.75;;;13.86
12126;BMP180;6126;57.908;16.490;2022-09-09T04:30:49;101657.75;;;13.86
12126;BMP180;6126;57.908;16.490;2022-09-09T04:33:15;101655.19;;;13.84
12126;BMP180;6126;57.908;16.490;2022-09-09T04:35:48;101655.13;;;13.86
12126;BMP180;6126;57.908;16.490;2022-09-09T04:38:15;101671.69;;;13.87
12126;BMP180;6126;57.908;16.490;2022-09-09T04:40:45;101672.53;;;13.88
12126;BMP180;6126;57.908;16.490;2022-09-09T04:43:12;101670.72;;;13.90
12126;BMP180;6126;57.908;16.490;2022-09-09T04:45:40;101675.75;;;13.94
12126;BMP180;6126;57.908;16.490;2022-09-09T04:48:07;101668.66;;;13.96
12126;BMP180;6126;57.908;16.490;2022-09-09T04:50:33;101679.03;;;14.01
12126;BMP180;6126;57.908;16.490;2022-09-09T04:53:04;101670.16;;;14.03
12126;BMP180;6126;57.908;16.490;2022-09-09T04:55:31;101678.75;;;14.07
12126;BMP180;6126;57.908;16.490;2022-09-09T04:57:57;101676.81;;;14.12
12126;BMP180;6126;57.908;16.490;2022-09-09T05:00:24;101668.78;;;14.15
12126;BMP180;6126;57.908;16.490;2022-09-09T05:02:50;101676.53;;;14.18
12126;BMP180;6126;57.908;16.490;2022-09-09T05:05:16;101674.66;;;14.21
12126;BMP180;6126;57.908;16.490;2022-09-09T05:07:44;101665.78;;;14.23
12126;BMP180;6126;57.908;16.490;2022-09-09T05:10:10;101677.00;;;14.27
12126;BMP180;6126;57.908;16.490;2022-09-09T05:12:36;101674.19;;;14.31
12126;BMP180;6126;57.908;16.490;2022-09-09T05:15:02;101674.91;;;14.35
12126;BMP180;6126;57.908;16.490;2022-09-09T05:17:28;101676.44;;;14.39
12126;BMP180;6126;57.908;16.490;2022-09-09T05:19:54;101672.84;;;14.41
12126;BMP180;6126;57.908;16.490;2022-09-09T05:22:20;101670.94;;;14.45
12126;BMP180;6126;57.908;16.490;2022-09-09T05:24:50;101675.28;;;14.46
12126;BMP180;6126;57.908;16.490;2022-09-09T05:27:18;101672.66;;;14.46
12126;BMP180;6126;57.908;16.490;2022-09-09T05:29:48;101670.94;;;14.45
12126;BMP180;6126;57.908;16.490;2022-09-09T05:32:13;101668.31;;;14.45
12126;BMP180;6126;57.908;16.490;2022-09-09T05:34:41;101679.88;;;14.41
12126;BMP180;6126;57.908;16.490;2022-09-09T05:37:07;101682.59;;;14.39
12126;BMP180;6126;57.908;16.490;2022-09-09T05:39:34;101675.47;;;14.41
12126;BMP180;6126;57.908;16.490;2022-09-09T05:42:02;101688.50;;;14.44
12126;BMP180;6126;57.908;16.490;2022-09-09T05:44:30;101675.22;;;14.47
12126;BMP180;6126;57.908;16.490;2022-09-09T05:46:56;101679.28;;;14.54
12126;BMP180;6126;57.908;16.490;2022-09-09T05:49:23;101686.19;;;14.56
12126;BMP180;6126;57.908;16.490;2022-09-09T05:51:49;101685.13;;;14.60
12126;BMP180;6126;57.908;16.490;2022-09-09T05:54:16;101678.78;;;14.64
12126;BMP180;6126;57.908;16.490;2022-09-09T05:56:42;101676.03;;;14.67
12126;BMP180;6126;57.908;16.490;2022-09-09T05:59:08;101670.72;;;14.69
12126;BMP180;6126;57.908;16.490;2022-09-09T06:01:36;101667.03;;;14.73
12126;BMP180;6126;57.908;16.490;2022-09-09T06:04:06;101678.13;;;14.79
12126;BMP180;6126;57.908;16.490;2022-09-09T06:06:38;101674.22;;;14.87
12126;BMP180;6126;57.908;16.490;2022-09-09T06:09:07;101670.38;;;14.94
12126;BMP180;6126;57.908;16.490;2022-09-09T06:11:38;101673.56;;;15.01
12126;BMP180;6126;57.908;16.490;2022-09-09T06:14:05;101675.84;;;15.08
12126;BMP180;6126;57.908;16.490;2022-09-09T06:16:33;101665.16;;;15.12
12126;BMP180;6126;57.908;16.490;2022-09-09T06:19:00;101667.56;;;15.17
12126;BMP180;6126;57.908;16.490;2022-09-09T06:21:35;101669.13;;;15.21
12126;BMP180;6126;57.908;16.490;2022-09-09T06:24:06;101674.03;;;15.28
12126;BMP180;6126;57.908;16.490;2022-09-09T06:26:39;101672.94;;;15.32
12126;BMP180;6126;57.908;16.490;2022-09-09T06:29:10;101671.03;;;15.36
12126;BMP180;6126;57.908;16.490;2022-09-09T06:31:37;101664.78;;;15.38
12126;BMP180;6126;57.908;16.490;2022-09-09T06:34:06;101674.31;;;15.41
12126;BMP180;6126;57.908;16.490;2022-09-09T06:36:35;101669.19;;;15.38
12126;BMP180;6126;57.908;16.490;2022-09-09T06:39:04;101667.47;;;15.37
12126;BMP180;6126;57.908;16.490;2022-09-09T06:41:32;101685.75;;;15.40
12126;BMP180;6126;57.908;16.490;2022-09-09T06:43:58;101675.31;;;15.38
12126;BMP180;6126;57.908;16.490;2022-09-09T06:46:30;101673.72;;;15.34
12126;BMP180;6126;57.908;16.490;2022-09-09T06:48:58;101667.63;;;15.34
12126;BMP180;6126;57.908;16.490;2022-09-09T06:51:36;101678.00;;;15.37
12126;BMP180;6126;57.908;16.490;2022-09-09T06:54:08;101670.91;;;15.39
12126;BMP180;6126;57.908;16.490;2022-09-09T06:56:39;101672.44;;;15.42
12126;BMP180;6126;57.908;16.490;2022-09-09T06:59:09;101664.47;;;15.44
12126;BMP180;6126;57.908;16.490;2022-09-09T07:01:39;101673.06;;;15.47
12126;BMP180;6126;57.908;16.490;2022-09-09T07:04:07;101677.19;;;15.53
12126;BMP180;6126;57.908;16.490;2022-09-09T07:06:41;101666.44;;;15.57
12126;BMP180;6126;57.908;16.490;2022-09-09T07:09:11;101673.28;;;15.61
12126;BMP180;6126;57.908;16.490;2022-09-09T07:11:43;101660.00;;;15.63
12126;BMP180;6126;57.908;16.490;2022-09-09T07:14:10;101664.97;;;15.69
12126;BMP180;6126;57.908;16.490;2022-09-09T07:16:43;101663.53;;;15.80
12126;BMP180;6126;57.908;16.490;2022-09-09T07:19:10;101655.31;;;15.86
12126;BMP180;6126;57.908;16.490;2022-09-09T07:21:37;101653.38;;;15.89
12126;BMP180;6126;57.908;16.490;2022-09-09T07:24:03;101665.63;;;15.90
12126;BMP180;6126;57.908;16.490;2022-09-09T07:26:33;101658.56;;;15.91
12126;BMP180;6126;57.908;16.490;2022-09-09T07:28:59;101655.16;;;15.89
12126;BMP180;6126;57.908;16.490;2022-09-09T07:31:34;101663.91;;;15.89
12126;BMP180;6126;57.908;16.490;2022-09-09T07:34:03;101658.56;;;15.91
12126;BMP180;6126;57.908;16.490;2022-09-09T07:36:36;101663.69;;;15.94
12126;BMP180;6126;57.908;16.490;2022-09-09T07:39:10;101653.94;;;15.96
12126;BMP180;6126;57.908;16.490;2022-09-09T07:41:47;101649.34;;;15.99
12126;BMP180;6126;57.908;16.490;2022-09-09T07:44:24;101657.19;;;16.01
12126;BMP180;6126;57.908;16.490;2022-09-09T07:46:50;101662.31;;;16.03
12126;BMP180;6126;57.908;16.490;2022-09-09T07:49:16;101650.75;;;16.06
12126;BMP180;6126;57.908;16.490;2022-09-09T07:51:46;101658.50;;;16.09
12126;BMP180;6126;57.908;16.490;2022-09-09T07:54:16;101645.16;;;16.12
12126;BMP180;6126;57.908;16.490;2022-09-09T07:56:45;101651.16;;;16.15
12126;BMP180;6126;57.908;16.490;2022-09-09T07:59:12;101652.72;;;16.19
12126;BMP180;6126;57.908;16.490;2022-09-09T08:01:51;101658.84;;;16.20
12126;BMP180;6126;57.908;16.490;2022-09-09T08:04:21;101658.00;;;16.19
12126;BMP180;6126;57.908;16.490;2022-09-09T08:07:00;101655.19;;;16.22
12126;BMP180;6126;57.908;16.490;2022-09-09T08:09:27;101652.41;;;16.25
12126;BMP180;6126;57.908;16.490;2022-09-09T08:11:55;101655.59;;;16.32
12126;BMP180;6126;57.908;16.490;2022-09-09T08:14:25;101657.81;;;16.39
12126;BMP180;6126;57.908;16.490;2022-09-09T08:16:52;101648.81;;;16.43
12126;BMP180;6126;57.908;16.490;2022-09-09T08:19:19;101645.16;;;16.45
12126;BMP180;6126;57.908;16.490;2022-09-09T08:21:46;101653.06;;;16.45
12126;BMP180;6126;57.908;16.490;2022-09-09T08:24:13;101658.28;;;16.47
12126;BMP180;6126;57.908;16.490;2022-09-09T08:26:45;101648.41;;;16.50
12126;BMP180;6126;57.908;16.490;2022-09-09T08:29:13;101650.88;;;16.53
12126;BMP180;6126;57.908;16.490;2022-09-09T08:31:51;101650.81;;;16.55
12126;BMP180;6126;57.908;16.490;2022-09-09T08:34:21;101655.16;;;16.56
12126;BMP180;6126;57.908;16.490;2022-09-09T08:36:49;101665.63;;;16.57
12126;BMP180;6126;57.908;16.490;2022-09-09T08:39:18;101649.63;;;16.60
12126;BMP180;6126;57.908;16.490;2022-09-09T08:55:58;101659.22;;;16.93
12126;BMP180;6126;57.908;16.490;2022-09-09T08:58:29;101646.88;;;16.94
12126;BMP180;6126;57.908;16.490;2022-09-09T09:07:43;101627.16;;;17.16
12126;BMP180;6126;57.908;16.490;2022-09-09T09:10:44;101616.16;;;17.23
12126;BMP180;6126;57.908;16.490;2022-09-09T09:13:20;101628.94;;;17.30
12126;BMP180;6126;57.908;16.490;2022-09-09T09:15:55;101624.84;;;17.40
12126;BMP180;6126;57.908;16.490;2022-09-09T09:18:22;101622.53;;;17.50
12126;BMP180;6126;57.908;16.490;2022-09-09T09:24:00;101623.97;;;17.55
12126;BMP180;6126;57.908;16.490;2022-09-09T09:26:33;101628.03;;;17.60
12126;BMP180;6126;57.908;16.490;2022-09-09T09:29:12;101625.06;;;17.66
12126;BMP180;6126;57.908;16.490;2022-09-09T09:31:38;101617.78;;;17.70
12126;BMP180;6126;57.908;16.490;2022-09-09T09:34:04;101621.81;;;17.77
12126;BMP180;6126;57.908;16.490;2022-09-09T09:36:39;101622.53;;;17.79
12126;BMP180;6126;57.908;16.490;2022-09-09T09:39:06;101623.13;;;17.84
12126;BMP180;6126;57.908;16.490;2022-09-09T09:41:42;101613.31;;;17.86
12126;BMP180;6126;57.908;16.490;2022-09-09T09:44:31;101622.94;;;17.87
12126;BMP180;6126;57.908;16.490;2022-09-09T09:49:35;101604.63;;;17.84
12126;BMP180;6126;57.908;16.490;2022-09-09T09:52:03;101603.94;;;17.80
12126;BMP180;6126;57.908;16.490;2022-09-09T09:54:33;101610.94;;;17.81
12126;BMP180;6126;57.908;16.490;2022-09-09T09:57:10;101609.16;;;17.82
12126;BMP180;6126;57.908;16.490;2022-09-09T09:59:37;101607.44;;;17.81
12126;BMP180;6126;57.908;16.490;2022-09-09T10:02:31;101599.72;;;17.91
12126;BMP180;6126;57.908;16.490;2022-09-09T10:07:43;101599.47;;;17.96
12126;BMP180;6126;57.908;16.490;2022-09-09T10:10:27;101603.53;;;18.01
12126;BMP180;6126;57.908;16.490;2022-09-09T10:14:02;101590.91;;;18.06
12126;BMP180;6126;57.908;16.490;2022-09-09T10:19:12;101601.31;;;18.23
12126;BMP180;6126;57.908;16.490;2022-09-09T10:25:25;101593.88;;;18.16
12126;BMP180;6126;57.908;16.490;2022-09-09T10:28:29;101595.06;;;18.10
12126;BMP180;6126;57.908;16.490;2022-09-09T10:34:25;101598.47;;;18.12
12126;BMP180;6126;57.908;16.490;2022-09-09T10:36:59;101601.22;;;18.11
12126;BMP180;6126;57.908;16.490;2022-09-09T10:39:38;101592.91;;;18.17
12126;BMP180;6126;57.908;16.490;2022-09-09T10:42:16;101595.94;;;18.24
12126;BMP180;6126;57.908;16.490;2022-09-09T10:51:14;101582.44;;;18.43
12126;BMP180;6126;57.908;16.490;2022-09-09T10:54:36;101599.34;;;18.54
12126;BMP180;6126;57.908;16.490;2022-09-09T11:00:22;101588.66;;;18.69
12126;BMP180;6126;57.908;16.490;2022-09-09T11:02:57;101588.19;;;18.77
12126;BMP180;6126;57.908;16.490;2022-09-09T11:08:09;101596.69;;;18.82
12126;BMP180;6126;57.908;16.490;2022-09-09T11:10:57;101589.53;;;18.83
12126;BMP180;6126;57.908;16.490;2022-09-09T11:13:57;101590.56;;;18.95
12126;BMP180;6126;57.908;16.490;2022-09-09T11:16:56;101573.97;;;19.05
12126;BMP180;6126;57.908;16.490;2022-09-09T11:19:38;101575.38;;;19.11
12126;BMP180;6126;57.908;16.490;2022-09-09T11:24:56;101582.00;;;19.17
12126;BMP180;6126;57.908;16.490;2022-09-09T11:41:37;101583.81;;;19.43
12126;BMP180;6126;57.908;16.490;2022-09-09T11:44:28;101580.41;;;19.41
12126;BMP180;6126;57.908;16.490;2022-09-09T11:46:55;101585.69;;;19.41
12126;BMP180;6126;57.908;16.490;2022-09-09T11:49:40;101585.28;;;19.47
12126;BMP180;6126;57.908;16.490;2022-09-09T11:52:42;101582.44;;;19.50
12126;BMP180;6126;57.908;16.490;2022-09-09T11:55:32;101578.50;;;19.43
12126;BMP180;6126;57.908;16.490;2022-09-09T12:06:20;101568.97;;;19.53
12126;BMP180;6126;57.908;16.490;2022-09-09T12:09:24;101567.91;;;19.55
12126;BMP180;6126;57.908;16.490;2022-09-09T12:11:53;101565.81;;;19.60
12126;BMP180;6126;57.908;16.490;2022-09-09T12:14:59;101580.53;;;19.52
12126;BMP180;6126;57.908;16.490;2022-09-09T12:17:29;101581.59;;;19.23
12126;BMP180;6126;57.908;16.490;2022-09-09T12:20:37;101590.16;;;18.87
12126;BMP180;6126;57.908;16.490;2022-09-09T12:29:26;101600.50;;;18.36
12126;BMP180;6126;57.908;16.490;2022-09-09T12:32:13;101604.19;;;18.34
12126;BMP180;6126;57.908;16.490;2022-09-09T12:34:55;101589.25;;;18.33
12126;BMP180;6126;57.908;16.490;2022-09-09T12:40:18;101587.81;;;18.27
12126;BMP180;6126;57.908;16.490;2022-09-09T12:42:44;101587.34;;;18.21
12126;BMP180;6126;57.908;16.490;2022-09-09T12:45:23;101583.19;;;18.17
12126;BMP180;6126;57.908;16.490;2022-09-09T12:48:12;101583.56;;;18.11
12126;BMP180;6126;57.908;16.490;2022-09-09T12:50:50;101582.72;;;18.11
12126;BMP180;6126;57.908;16.490;2022-09-09T12:53:27;101581.75;;;18.12
12126;BMP180;6126;57.908;16.490;2022-09-09T12:56:08;101578.84;;;18.16
12126;BMP180;6126;57.908;16.490;2022-09-09T12:58:37;101584.41;;;18.25
12126;BMP180;6126;57.908;16.490;2022-09-09T13:01:05;101578.84;;;18.30
12126;BMP180;6126;57.908;16.490;2022-09-09T13:03:33;101584.72;;;18.35
12126;BMP180;6126;57.908;16.490;2022-09-09T13:06:18;101579.16;;;18.39
12126;BMP180;6126;57.908;16.490;2022-09-09T13:08:45;101579.16;;;18.39
12126;BMP180;6126;57.908;16.490;2022-09-09T13:11:17;101589.03;;;18.36
12126;BMP180;6126;57.908;16.490;2022-09-09T13:13:52;101591.31;;;18.28
12126;BMP180;6126;57.908;16.490;2022-09-09T13:16:29;101584.91;;;18.18
12126;BMP180;6126;57.908;16.490;2022-09-09T13:19:14;101586.28;;;18.10
12126;BMP180;6126;57.908;16.490;2022-09-09T13:21:40;101590.16;;;18.04
12126;BMP180;6126;57.908;16.490;2022-09-09T13:27:29;101597.91;;;17.92
12126;BMP180;6126;57.908;16.490;2022-09-09T13:29:56;101588.66;;;17.85
12126;BMP180;6126;57.908;16.490;2022-09-09T13:32:24;101591.56;;;17.81
12126;BMP180;6126;57.908;16.490;2022-09-09T13:35:01;101598.91;;;17.76
12126;BMP180;6126;57.908;16.490;2022-09-09T13:37:39;101599.28;;;17.70
12126;BMP180;6126;57.908;16.490;2022-09-09T13:40:20;101605.69;;;17.66
12126;BMP180;6126;57.908;16.490;2022-09-09T13:42:50;101601.34;;;17.65
12126;BMP180;6126;57.908;16.490;2022-09-09T13:45:23;101610.13;;;17.65
12126;BMP180;6126;57.908;16.490;2022-09-09T13:47:50;101608.25;;;17.67
12126;BMP180;6126;57.908;16.490;2022-09-09T13:50:26;101614.56;;;17.65
12126;BMP180;6126;57.908;16.490;2022-09-09T13:52:58;101599.91;;;17.59
12126;BMP180;6126;57.908;16.490;2022-09-09T13:55:29;101611.69;;;17.54
12126;BMP180;6126;57.908;16.490;2022-09-09T13:58:02;101607.63;;;17.49
12126;BMP180;6126;57.908;16.490;2022-09-09T14:00:32;101610.50;;;17.44
12126;BMP180;6126;57.908;16.490;2022-09-09T14:02:58;101608.13;;;17.40
12126;BMP180;6126;57.908;16.490;2022-09-09T14:05:30;101612.75;;;17.36
12126;BMP180;6126;57.908;16.490;2022-09-09T14:07:57;101602.53;;;17.30
12126;BMP180;6126;57.908;16.490;2022-09-09T14:10:23;101610.81;;;17.25
12126;BMP180;6126;57.908;16.490;2022-09-09T14:12:49;101609.34;;;17.19
12126;BMP180;6126;57.908;16.490;2022-09-09T14:15:15;101606.78;;;17.18
12126;BMP180;6126;57.908;16.490;2022-09-09T14:17:42;101607.88;;;17.14
12126;BMP180;6126;57.908;16.490;2022-09-09T14:20:10;101613.41;;;17.09
12126;BMP180;6126;57.908;16.490;2022-09-09T14:22:37;101609.31;;;17.04
12126;BMP180;6126;57.908;16.490;2022-09-09T14:25:05;101603.34;;;17.00
12126;BMP180;6126;57.908;16.490;2022-09-09T14:27:31;101599.09;;;16.98
12126;BMP180;6126;57.908;16.490;2022-09-09T14:29:58;101611.53;;;16.96
12126;BMP180;6126;57.908;16.490;2022-09-09T14:32:26;101606.34;;;16.95
12126;BMP180;6126;57.908;16.490;2022-09-09T14:34:52;101603.75;;;16.93
12126;BMP180;6126;57.908;16.490;2022-09-09T14:37:18;101603.94;;;16.90
12126;BMP180;6126;57.908;16.490;2022-09-09T14:39:44;101606.69;;;16.89
12126;BMP180;6126;57.908;16.490;2022-09-09T14:42:16;101606.84;;;16.86
12126;BMP180;6126;57.908;16.490;2022-09-09T14:44:41;101607.94;;;16.82
12126;BMP180;6126;57.908;16.490;2022-09-09T14:47:08;101605.38;;;16.80
12126;BMP180;6126;57.908;16.490;2022-09-09T14:49:37;101605.38;;;16.80
12126;BMP180;6126;57.908;16.490;2022-09-09T14:52:04;101599.25;;;16.80
12126;BMP180;6126;57.908;16.490;2022-09-09T14:54:31;101600.19;;;16.79
12126;BMP180;6126;57.908;16.490;2022-09-09T14:56:58;101596.72;;;16.78
12126;BMP180;6126;57.908;16.490;2022-09-09T14:59:24;101598.41;;;16.79
12126;BMP180;6126;57.908;16.490;2022-09-09T15:01:50;101604.63;;;16.78
12126;BMP180;6126;57.908;16.490;2022-09-09T15:04:16;101603.84;;;16.76
12126;BMP180;6126;57.908;16.490;2022-09-09T15:06:43;101601.53;;;16.70
12126;BMP180;6126;57.908;16.490;2022-09-09T15:09:12;101607.75;;;16.69
12126;BMP180;6126;57.908;16.490;2022-09-09T15:11:38;101596.44;;;16.67
12126;BMP180;6126;57.908;16.490;2022-09-09T15:14:07;101609.78;;;16.65
12126;BMP180;6126;57.908;16.490;2022-09-09T15:16:34;101607.13;;;16.65
12126;BMP180;6126;57.908;16.490;2022-09-09T15:19:02;101608.25;;;16.61
12126;BMP180;6126;57.908;16.490;2022-09-09T15:21:32;101609.28;;;16.58
12126;BMP180;6126;57.908;16.490;2022-09-09T15:23:59;101611.97;;;16.57
12126;BMP180;6126;57.908;16.490;2022-09-09T15:26:25;101612.91;;;16.56
12126;BMP180;6126;57.908;16.490;2022-09-09T15:28:51;101613.16;;;16.51
12126;BMP180;6126;57.908;16.490;2022-09-09T15:31:20;101617.75;;;16.48
12126;BMP180;6126;57.908;16.490;2022-09-09T15:33:52;101616.38;;;16.41
12126;BMP180;6126;57.908;16.490;2022-09-09T15:36:24;101615.69;;;16.37
12126;BMP180;6126;57.908;16.490;2022-09-09T15:38:51;101612.25;;;16.35
12126;BMP180;6126;57.908;16.490;2022-09-09T15:41:19;101611.41;;;16.35
12126;BMP180;6126;57.908;16.490;2022-09-09T15:43:52;101606.31;;;16.32
12126;BMP180;6126;57.908;16.490;2022-09-09T15:46:28;101610.03;;;16.28
12126;BMP180;6126;57.908;16.490;2022-09-09T15:48:58;101609.34;;;16.25
12126;BMP180;6126;57.908;16.490;2022-09-09T15:51:25;101615.56;;;16.24
12126;BMP180;6126;57.908;16.490;2022-09-09T15:53:58;101612.16;;;16.22
12126;BMP180;6126;57.908;16.490;2022-09-09T15:56:26;101619.22;;;16.21
12126;BMP180;6126;57.908;16.490;2022-09-09T15:59:02;101622.00;;;16.18
12126;BMP180;6126;57.908;16.490;2022-09-09T16:01:29;101617.00;;;16.12
12126;BMP180;6126;57.908;16.490;2022-09-09T16:03:58;101625.91;;;16.10
12126;BMP180;6126;57.908;16.490;2022-09-09T16:06:28;101619.72;;;16.11
12126;BMP180;6126;57.908;16.490;2022-09-09T16:08:56;101622.44;;;16.09
12126;BMP180;6126;57.908;16.490;2022-09-09T16:11:34;101619.72;;;16.11
12126;BMP180;6126;57.908;16.490;2022-09-09T16:14:00;101627.53;;;16.12
12126;BMP180;6126;57.908;16.490;2022-09-09T16:16:29;101623.22;;;16.11
12126;BMP180;6126;57.908;16.490;2022-09-09T16:18:59;101624.06;;;16.12
12126;BMP180;6126;57.908;16.490;2022-09-09T16:21:31;101618.78;;;16.12
12126;BMP180;6126;57.908;16.490;2022-09-09T16:24:00;101612.63;;;16.13
12126;BMP180;6126;57.908;16.490;2022-09-09T16:26:30;101615.28;;;16.13
12126;BMP180;6126;57.908;16.490;2022-09-09T16:28:57;101615.28;;;16.13
12126;BMP180;6126;57.908;16.490;2022-09-09T16:31:26;101609.19;;;16.11
12126;BMP180;6126;57.908;16.490;2022-09-09T16:33:53;101610.97;;;16.10
12126;BMP180;6126;57.908;16.490;2022-09-09T16:36:22;101611.81;;;16.11
12126;BMP180;6126;57.908;16.490;2022-09-09T16:38:56;101617.94;;;16.11
12126;BMP180;6126;57.908;16.490;2022-09-09T16:41:24;101617.09;;;16.11
12126;BMP180;6126;57.908;16.490;2022-09-09T16:44:02;101623.22;;;16.11